Time;durP1;ratioP1;P1;durP2;ratioP2;P2;SDS_P1;SDS_P2;PMS_P1;PMS_P2;Temp;Humidity;BMP_temperature;BMP_pressure;BME280_temperature;BME280_humidity;BME280_pressure;Samples;Min_cycle;Max_cycle;Signal;HPM_P1;HPM_P2
2023/04/04 00:00:14;;;;;;;3.50;2.25;;;;;;;17.77;57.52;99401.53;4963861;28;20026;-65
2023/04/04 00:02:39;;;;;;;3.97;1.90;;;;;;;17.78;57.24;99395.31;4993851;28;20499;-64
2023/04/04 00:05:06;;;;;;;3.67;2.00;;;;;;;17.77;57.11;99401.53;4993639;28;20037;-65
2023/04/04 00:07:32;;;;;;;4.43;2.20;;;;;;;17.77;57.14;99398.88;4993786;28;20027;-65
2023/04/04 00:09:57;;;;;;;4.28;2.25;;;;;;;17.75;57.22;99398.06;4993257;28;20026;-65
2023/04/04 00:12:23;;;;;;;3.45;2.00;;;;;;;17.75;57.40;99404.22;4993502;28;20488;-65
2023/04/04 00:14:50;;;;;;;3.47;2.10;;;;;;;17.74;57.02;99407.81;4993478;28;20068;-65
2023/04/04 00:17:15;;;;;;;4.95;2.13;;;;;;;17.73;57.21;99411.38;4990296;28;20035;-65
2023/04/04 00:19:41;;;;;;;4.13;2.30;;;;;;;17.73;56.97;99421.94;4973913;28;20039;-65
2023/04/04 00:22:07;;;;;;;3.55;1.80;;;;;;;17.73;57.10;99418.41;4973848;28;20035;-66
2023/04/04 00:24:33;;;;;;;3.33;1.95;;;;;;;17.73;57.21;99411.38;4973684;28;20039;-65
2023/04/04 00:26:58;;;;;;;4.10;2.22;;;;;;;17.73;57.07;99411.38;4973965;28;20126;-65
2023/04/04 00:29:24;;;;;;;4.07;2.08;;;;;;;17.74;57.16;99407.81;4973886;28;20033;-65
2023/04/04 00:31:49;;;;;;;3.30;2.00;;;;;;;17.72;57.42;99401.72;4991649;28;20441;-65
2023/04/04 00:34:14;;;;;;;3.60;1.90;;;;;;;17.71;57.00;99402.66;4993275;28;20026;-65
2023/04/04 00:36:40;;;;;;;3.65;1.85;;;;;;;17.70;57.14;99401.81;4993052;28;20030;-65
2023/04/04 00:39:06;;;;;;;3.13;2.00;;;;;;;17.70;56.87;99399.19;4993205;28;20512;-65
2023/04/04 00:41:31;;;;;;;4.00;2.08;;;;;;;17.69;57.29;99389.53;4993773;28;20037;-66
2023/04/04 00:43:57;;;;;;;4.70;2.05;;;;;;;17.70;57.00;99391.25;4978140;28;20046;-66
2023/04/04 00:46:24;;;;;;;2.75;1.80;;;;;;;17.70;57.00;99391.25;4974346;28;20023;-66
2023/04/04 00:48:50;;;;;;;3.55;1.90;;;;;;;17.70;57.06;99385.97;4974247;28;20031;-65
2023/04/04 00:51:15;;;;;;;3.50;2.05;;;;;;;17.69;57.02;99388.69;4973999;28;20030;-66
2023/04/04 00:53:45;;;;;;;4.80;1.92;;;;;;;17.66;57.34;99387.06;4973446;28;20031;-65
2023/04/04 00:56:11;;;;;;;3.70;2.10;;;;;;;17.67;57.05;99380.84;4973642;28;20023;-65
2023/04/04 00:58:37;;;;;;;3.95;1.80;;;;;;;17.67;57.21;99386.13;4973878;28;20055;-64
2023/04/04 01:01:02;;;;;;;3.67;1.85;;;;;;;17.65;56.79;99382.72;4973462;28;20117;-65
2023/04/04 01:03:28;;;;;;;3.88;2.10;;;;;;;17.64;57.05;99378.38;4973420;28;20105;-65
2023/04/04 01:05:54;;;;;;;3.40;2.10;;;;;;;17.65;56.88;99379.19;4979370;28;20076;-66
2023/04/04 01:08:23;;;;;;;4.45;1.90;;;;;;;17.64;56.93;99380.13;4992487;28;20109;-65
2023/04/04 01:10:49;;;;;;;3.67;1.90;;;;;;;17.63;57.14;99371.34;4992739;28;20022;-65
2023/04/04 01:13:15;;;;;;;3.95;2.22;;;;;;;17.62;57.21;99377.56;4992696;28;20034;-65
2023/04/04 01:15:41;;;;;;;3.30;1.90;;;;;;;17.62;57.05;99372.28;4992533;28;20023;-65
2023/04/04 01:18:08;;;;;;;3.53;1.95;;;;;;;17.60;57.15;99368.88;4992671;28;20026;-65
2023/04/04 01:20:39;;;;;;;2.92;1.75;;;;;;;17.59;57.20;99375.09;4992274;28;20117;-64
2023/04/04 01:23:05;;;;;;;3.08;1.88;;;;;;;17.60;57.20;99365.38;4992654;28;20084;-65
2023/04/04 01:25:31;;;;;;;3.58;1.92;;;;;;;17.61;56.88;99367.06;4992440;28;20034;-65
2023/04/04 01:27:59;;;;;;;3.97;1.77;;;;;;;17.60;56.86;99362.72;4990600;28;20023;-65
2023/04/04 01:30:33;;;;;;;2.83;1.60;;;;;;;17.60;56.82;99368.88;4972928;28;20508;-65
2023/04/04 01:33:08;;;;;;;2.97;1.90;;;;;;;17.58;57.10;99366.31;4972743;28;20500;-65
2023/04/04 01:35:51;;;;;;;3.63;1.92;;;;;;;17.59;56.93;99367.16;4972609;28;20023;-65
2023/04/04 01:38:26;;;;;;;4.43;2.25;;;;;;;17.58;56.72;99354.91;4976556;28;20046;-65
2023/04/04 01:40:56;;;;;;;4.50;2.05;;;;;;;17.58;57.02;99365.47;4992451;28;20432;-65
2023/04/04 01:43:22;;;;;;;3.75;1.90;;;;;;;17.58;57.09;99363.66;4981438;28;20023;-65
2023/04/04 01:45:48;;;;;;;2.72;1.60;;;;;;;17.57;56.73;99350.53;4972665;28;20073;-65
2023/04/04 01:48:15;;;;;;;3.13;1.70;;;;;;;17.55;56.85;99350.63;4973056;28;20030;-65
2023/04/04 01:50:41;;;;;;;3.63;1.85;;;;;;;17.54;56.80;99341.00;4988840;28;20113;-65
2023/04/04 01:53:06;;;;;;;4.57;1.92;;;;;;;17.53;56.63;99349.00;4974802;28;20080;-65
2023/04/04 01:55:32;;;;;;;2.60;1.73;;;;;;;17.53;57.13;99351.63;4992255;28;20096;-65
2023/04/04 01:57:57;;;;;;;3.20;1.70;;;;;;;17.53;56.71;99347.19;4992168;28;20554;-64
2023/04/04 02:00:23;;;;;;;3.08;1.70;;;;;;;17.54;56.69;99350.72;4992268;28;20022;-65
2023/04/04 02:02:48;;;;;;;3.05;1.75;;;;;;;17.52;57.01;99345.50;4992090;28;20524;-65
2023/04/04 02:05:14;;;;;;;3.05;1.60;;;;;;;17.51;56.72;99342.91;4991977;28;20089;-64
2023/04/04 02:07:40;;;;;;;3.78;2.10;;;;;;;17.52;56.87;99339.34;4992131;28;20045;-64
2023/04/04 02:10:05;;;;;;;2.80;1.70;;;;;;;17.50;56.72;99346.50;4986139;28;20380;-65
2023/04/04 02:12:31;;;;;;;3.00;1.80;;;;;;;17.51;56.74;99358.75;4972653;28;20035;-65
2023/04/04 02:14:56;;;;;;;3.70;1.70;;;;;;;17.50;56.97;99357.06;4972615;28;20031;-64
2023/04/04 02:17:22;;;;;;;2.72;1.58;;;;;;;17.50;56.61;99362.31;4958500;28;20033;-65
2023/04/04 02:19:48;;;;;;;3.55;2.00;;;;;;;17.48;56.76;99357.13;4976010;28;20026;-65
2023/04/04 02:22:13;;;;;;;2.95;1.67;;;;;;;17.50;56.65;99351.78;4976184;28;20027;-65
2023/04/04 02:24:39;;;;;;;3.35;1.70;;;;;;;17.48;56.60;99357.13;4976069;28;20044;-65
2023/04/04 02:27:05;;;;;;;4.00;1.73;;;;;;;17.47;56.85;99354.56;4975923;28;20110;-65
2023/04/04 02:29:30;;;;;;;3.75;1.80;;;;;;;17.46;56.64;99356.34;4986131;28;20018;-65
2023/04/04 02:31:56;;;;;;;2.83;1.55;;;;;;;17.45;56.63;99358.13;4995485;28;20018;-65
2023/04/04 02:34:21;;;;;;;2.80;1.67;;;;;;;17.44;56.42;99340.59;4994941;28;20477;-65
2023/04/04 02:36:47;;;;;;;2.80;1.70;;;;;;;17.43;56.39;99346.78;4995229;28;20105;-65
2023/04/04 02:39:12;;;;;;;5.43;2.28;;;;;;;17.42;56.54;99345.09;4995147;28;20074;-65
2023/04/04 02:41:38;;;;;;;2.45;1.50;;;;;;;17.42;56.63;99346.84;4995286;28;20474;-66
2023/04/04 02:44:03;;;;;;;2.92;1.70;;;;;;;17.41;56.37;99339.88;4979335;28;20031;-64
2023/04/04 02:46:29;;;;;;;2.83;1.60;;;;;;;17.41;56.52;99343.38;4988078;28;20033;-65
2023/04/04 02:48:54;;;;;;;2.78;1.70;;;;;;;17.40;56.54;99346.97;4994840;28;20030;-65
2023/04/04 02:51:19;;;;;;;2.67;1.80;;;;;;;17.40;56.44;99346.09;4995158;28;20029;-65
2023/04/04 02:53:45;;;;;;;2.75;1.50;;;;;;;17.40;56.46;99349.59;4994925;28;20030;-65
2023/04/04 02:56:11;;;;;;;3.42;1.88;;;;;;;17.41;56.66;99355.72;4994760;28;20377;-65
2023/04/04 02:58:36;;;;;;;3.35;1.70;;;;;;;17.38;56.37;99354.06;4994966;28;20034;-65
2023/04/04 03:01:02;;;;;;;2.85;1.77;;;;;;;17.39;56.34;99362.84;4994974;28;20022;-64
2023/04/04 03:03:27;;;;;;;3.80;1.75;;;;;;;17.38;56.32;99369.91;4994643;28;20443;-65
2023/04/04 03:05:52;;;;;;;3.50;1.63;;;;;;;17.37;56.43;99368.19;4985009;28;20489;-64
2023/04/04 03:08:18;;;;;;;2.22;1.55;;;;;;;17.38;56.31;99356.69;4975378;28;20093;-65
2023/04/04 03:10:44;;;;;;;2.80;1.67;;;;;;;17.35;56.28;99361.28;4975167;28;20031;-64
2023/04/04 03:13:10;;;;;;;3.20;1.95;;;;;;;17.34;56.41;99352.50;4975299;28;20094;-65
2023/04/04 03:15:35;;;;;;;2.25;1.45;;;;;;;17.35;56.46;99351.59;4975168;28;20026;-65
2023/04/04 03:18:02;;;;;;;3.00;1.85;;;;;;;17.33;56.38;99349.94;4957478;28;20117;-65
2023/04/04 03:20:27;;;;;;;2.38;1.50;;;;;;;17.30;56.42;99346.50;4993956;28;20031;-65
2023/04/04 03:22:52;;;;;;;2.55;1.33;;;;;;;17.31;56.32;99344.75;4977117;28;20492;-65
2023/04/04 03:25:18;;;;;;;2.50;1.38;;;;;;;17.29;56.32;99346.59;4994439;28;20373;-65
2023/04/04 03:27:43;;;;;;;2.03;1.15;;;;;;;17.28;56.32;99347.50;4993321;28;20023;-64
2023/04/04 03:30:09;;;;;;;2.65;1.50;;;;;;;17.26;56.29;99341.47;4974338;28;20042;-65
2023/04/04 03:32:36;;;;;;;2.35;1.50;;;;;;;17.25;56.18;99343.22;4974300;28;20027;-65
2023/04/04 03:35:01;;;;;;;2.45;1.55;;;;;;;17.24;56.18;99340.69;4957621;28;20448;-64
2023/04/04 03:37:28;;;;;;;2.60;1.45;;;;;;;17.25;56.22;99342.41;4974980;28;20061;-65
2023/04/04 03:39:54;;;;;;;2.92;1.70;;;;;;;17.25;56.34;99337.13;4974557;28;20051;-64
2023/04/04 03:42:20;;;;;;;2.20;1.48;;;;;;;17.24;56.46;99345.97;4974496;28;20448;-65
2023/04/04 03:44:46;;;;;;;2.60;1.58;;;;;;;17.23;56.54;99344.25;4974574;28;20558;-65
2023/04/04 03:47:13;;;;;;;2.63;1.65;;;;;;;17.21;56.29;99341.69;4973613;28;20035;-64
2023/04/04 03:49:38;;;;;;;2.85;1.70;;;;;;;17.23;56.19;99344.25;4974579;28;20516;-65
2023/04/04 03:52:04;;;;;;;3.67;1.77;;;;;;;17.22;56.09;99342.53;4973944;28;20031;-64
2023/04/04 03:54:29;;;;;;;2.92;1.67;;;;;;;17.21;56.25;99341.69;4974037;28;20030;-65
2023/04/04 03:56:56;;;;;;;4.00;1.60;;;;;;;17.19;56.57;99338.25;4956972;28;20559;-64
2023/04/04 03:59:22;;;;;;;3.15;1.73;;;;;;;17.18;56.24;99337.41;4974467;28;20023;-65
2023/04/04 04:01:47;;;;;;;2.40;1.60;;;;;;;17.19;56.14;99343.53;4974142;28;20499;-64
2023/04/04 04:04:13;;;;;;;3.03;1.70;;;;;;;17.18;56.21;99340.06;4974333;28;20484;-65
2023/04/04 04:06:38;;;;;;;2.42;1.60;;;;;;;17.18;56.04;99345.31;4974180;28;20366;-64
2023/04/04 04:09:04;;;;;;;2.78;1.50;;;;;;;17.18;56.29;99342.69;4974059;28;20023;-64
2023/04/04 04:11:29;;;;;;;2.55;1.60;;;;;;;17.18;55.97;99347.97;4974204;28;20027;-65
2023/04/04 04:13:55;;;;;;;3.58;1.75;;;;;;;17.17;55.90;99350.66;4973951;28;20117;-64
2023/04/04 04:16:21;;;;;;;3.05;1.90;;;;;;;17.18;56.06;99342.69;4973785;28;20709;-65
2023/04/04 04:18:46;;;;;;;3.25;1.65;;;;;;;17.16;56.13;99339.25;4973883;28;20033;-65
2023/04/04 04:21:12;;;;;;;2.75;1.38;;;;;;;17.16;56.30;99344.53;4973935;28;20030;-65
2023/04/04 04:23:37;;;;;;;2.72;1.63;;;;;;;17.15;56.35;99352.53;4973911;28;20031;-65
2023/04/04 04:26:04;;;;;;;3.00;1.50;;;;;;;17.15;56.15;99353.38;4974058;28;20174;-65
2023/04/04 04:28:29;;;;;;;2.63;1.55;;;;;;;17.14;55.90;99354.28;4973964;28;20026;-65
2023/04/04 04:30:55;;;;;;;2.85;1.50;;;;;;;17.15;56.13;99353.38;4973573;28;20037;-64
2023/04/04 04:33:28;;;;;;;2.38;1.40;;;;;;;17.14;56.02;99356.94;4973702;28;20058;-64
2023/04/04 04:35:57;;;;;;;2.78;1.55;;;;;;;17.14;56.19;99353.47;4973975;28;20037;-65
2023/04/04 04:38:23;;;;;;;2.28;1.30;;;;;;;17.13;56.01;99355.22;4973409;28;20126;-65
2023/04/04 04:40:48;;;;;;;3.13;1.20;;;;;;;17.10;56.00;99347.44;4973777;28;20118;-66
2023/04/04 04:43:13;;;;;;;2.30;1.25;;;;;;;17.11;56.20;99350.94;4973546;28;20027;-65
2023/04/04 04:45:41;;;;;;;3.03;1.70;;;;;;;17.09;56.01;99348.38;4973020;28;20396;-64
2023/04/04 04:48:06;;;;;;;2.17;1.27;;;;;;;17.10;56.20;99350.09;4973701;28;20106;-63
2023/04/04 04:50:32;;;;;;;4.30;1.50;;;;;;;17.09;56.38;99350.19;4973886;28;20038;-63
2023/04/04 04:52:57;;;;;;;8.48;1.98;;;;;;;17.11;56.22;99351.81;4973771;28;20114;-64
2023/04/04 04:55:23;;;;;;;2.58;1.42;;;;;;;17.12;56.36;99358.78;4973780;28;20029;-66
2023/04/04 04:57:48;;;;;;;2.70;1.60;;;;;;;17.12;56.26;99357.94;4973836;28;20031;-65
2023/04/04 05:00:15;;;;;;;4.95;2.10;;;;;;;17.13;55.99;99354.34;4973472;28;20511;-66
2023/04/04 05:02:41;;;;;;;3.10;1.70;;;;;;;17.14;56.24;99359.56;4974209;28;20038;-66
2023/04/04 05:05:06;;;;;;;3.55;1.85;;;;;;;17.14;56.10;99361.38;4973999;28;20026;-66
2023/04/04 05:07:32;;;;;;;2.95;1.55;;;;;;;17.09;56.29;99358.09;4973681;28;20045;-65
2023/04/04 05:13:44;;;;;;;4.50;1.88;;;;;;;17.06;55.95;99364.34;4973172;28;20053;-64
2023/04/04 05:16:10;;;;;;;3.75;1.70;;;;;;;17.05;56.12;99367.91;4971536;28;20408;-64
2023/04/04 05:18:35;;;;;;;3.58;1.98;;;;;;;17.08;56.08;99375.69;4973286;28;20027;-65
2023/04/04 05:21:01;;;;;;;2.78;1.67;;;;;;;17.07;55.70;99381.88;4972631;28;20106;-65
2023/04/04 05:23:26;;;;;;;5.38;2.30;;;;;;;17.06;56.01;99369.63;4973268;28;20114;-65
2023/04/04 05:25:52;;;;;;;5.82;1.75;;;;;;;17.03;56.17;99381.16;4972750;28;20038;-65
2023/04/04 05:28:19;;;;;;;5.88;1.90;;;;;;;17.05;56.22;99378.47;4955369;28;20027;-64
2023/04/04 05:30:45;;;;;;;6.65;2.30;;;;;;;17.04;56.66;99382.00;4973076;28;20022;-64
2023/04/04 05:33:10;;;;;;;4.22;2.08;;;;;;;17.04;56.72;99382.00;4972985;28;20031;-65
2023/04/04 05:35:36;;;;;;;9.57;2.13;;;;;;;17.02;57.20;99384.72;4972664;28;20034;-65
2023/04/04 05:38:01;;;;;;;5.85;2.72;;;;;;;17.04;57.44;99397.81;4973622;28;20023;-65
2023/04/04 05:40:27;;;;;;;7.55;2.70;;;;;;;17.05;57.21;99404.84;4991983;28;20126;-64
2023/04/04 05:42:57;;;;;;;6.57;2.10;;;;;;;17.03;57.16;99410.16;4976102;28;20027;-65
2023/04/04 05:45:23;;;;;;;6.40;2.42;;;;;;;17.03;57.36;99411.94;4971356;28;20035;-65
2023/04/04 05:47:48;;;;;;;5.75;2.22;;;;;;;17.04;57.52;99416.28;4972783;28;20025;-65
2023/04/04 05:50:14;;;;;;;7.18;2.25;;;;;;;17.02;57.44;99418.09;4972738;28;20067;-64
2023/04/04 05:52:40;;;;;;;7.32;2.30;;;;;;;17.03;57.53;99420.72;4976666;28;20039;-63
2023/04/04 05:55:06;;;;;;;5.70;2.25;;;;;;;17.04;57.28;99425.06;4974111;28;20106;-63
2023/04/04 05:57:31;;;;;;;7.28;2.58;;;;;;;17.01;57.33;99424.31;4974369;28;20019;-64
2023/04/04 05:59:57;;;;;;;6.45;2.45;;;;;;;16.99;57.50;99427.00;4994906;28;20499;-65
2023/04/04 06:02:23;;;;;;;4.95;2.30;;;;;;;16.98;57.50;99432.34;4995912;28;20023;-64
2023/04/04 06:04:48;;;;;;;6.35;2.35;;;;;;;16.98;57.63;99434.97;4995862;28;20038;-64
2023/04/04 06:07:14;;;;;;;5.38;2.22;;;;;;;16.97;57.59;99434.13;4995408;28;20037;-64
2023/04/04 06:09:40;;;;;;;7.32;2.47;;;;;;;16.98;57.45;99437.59;4995464;28;20053;-65
2023/04/04 06:12:05;;;;;;;7.93;2.05;;;;;;;16.95;57.63;99435.13;4995015;28;20442;-65
2023/04/04 06:14:31;;;;;;;6.00;2.47;;;;;;;16.95;57.74;99440.41;4993781;28;20034;-64
2023/04/04 06:16:57;;;;;;;7.97;2.40;;;;;;;16.96;57.65;99439.47;4976500;28;20409;-64
2023/04/04 06:19:22;;;;;;;6.05;2.05;;;;;;;16.95;57.75;99441.22;4976215;28;20035;-64
2023/04/04 06:21:48;;;;;;;3.50;1.75;;;;;;;16.94;57.44;99443.97;4976106;28;20050;-64
2023/04/04 06:24:14;;;;;;;7.57;1.88;;;;;;;16.91;57.69;99451.06;4976251;28;20026;-64
2023/04/04 06:26:39;;;;;;;6.07;2.20;;;;;;;16.88;57.71;99451.22;4972604;28;20035;-64
2023/04/04 06:29:04;;;;;;;3.22;1.77;;;;;;;16.90;57.58;99459.91;4975526;28;20034;-64
2023/04/04 06:31:30;;;;;;;5.60;2.10;;;;;;;16.88;57.41;99459.13;4975826;28;20074;-64
2023/04/04 06:33:56;;;;;;;6.03;2.28;;;;;;;16.87;57.50;99454.78;4975611;28;20034;-64
2023/04/04 06:36:21;;;;;;;4.85;2.13;;;;;;;16.90;57.70;99459.91;4973322;28;20081;-64
2023/04/04 06:38:47;;;;;;;5.68;2.15;;;;;;;16.89;57.70;99444.16;4975732;28;20046;-64
2023/04/04 06:41:12;;;;;;;6.05;2.13;;;;;;;16.87;57.56;99452.13;4974403;28;20027;-65
2023/04/04 06:43:38;;;;;;;5.22;1.92;;;;;;;16.89;57.60;99457.31;4975938;28;20034;-63
2023/04/04 06:46:03;;;;;;;4.13;1.83;;;;;;;16.88;57.69;99458.25;4975466;28;20031;-63
2023/04/04 06:48:28;;;;;;;6.28;2.67;;;;;;;16.87;57.20;99454.78;4975395;28;20053;-64
2023/04/04 06:50:54;;;;;;;8.15;1.80;;;;;;;16.87;57.47;99453.91;4975132;28;20027;-62
2023/04/04 06:53:20;;;;;;;4.38;1.88;;;;;;;16.85;57.31;99446.06;4974775;28;20476;-63
2023/04/04 06:55:45;;;;;;;5.03;1.73;;;;;;;16.84;57.27;99449.63;4970611;28;20484;-64
2023/04/04 06:58:11;;;;;;;4.45;2.10;;;;;;;16.83;57.39;99442.66;4960017;28;20031;-63
2023/04/04 07:00:36;;;;;;;5.78;1.98;;;;;;;16.85;57.75;99446.06;4969839;28;20089;-63
2023/04/04 07:03:01;;;;;;;4.22;2.25;;;;;;;16.85;57.27;99446.06;4974548;28;20034;-63
2023/04/04 07:05:27;;;;;;;6.30;1.98;;;;;;;16.86;57.58;99441.66;4975036;28;20031;-63
2023/04/04 07:07:55;;;;;;;4.53;1.98;;;;;;;16.85;56.93;99451.34;4975370;28;20452;-63
2023/04/04 07:10:22;;;;;;;4.45;2.20;;;;;;;16.86;57.15;99455.69;4975031;28;20034;-63
2023/04/04 07:12:48;;;;;;;5.72;2.10;;;;;;;16.88;57.00;99459.13;4975084;28;20053;-63
2023/04/04 07:15:14;;;;;;;5.18;1.95;;;;;;;16.88;56.87;99461.75;4974814;28;20395;-63
2023/04/04 07:17:40;;;;;;;6.47;2.22;;;;;;;16.87;56.70;99465.31;4975051;28;20031;-63
2023/04/04 07:20:07;;;;;;;4.38;2.13;;;;;;;16.89;56.85;99468.72;4975226;28;20018;-63
2023/04/04 07:22:32;;;;;;;3.92;1.88;;;;;;;16.88;57.20;99474.94;4975096;28;20035;-64
2023/04/04 07:24:57;;;;;;;5.32;1.88;;;;;;;16.89;56.98;99476.63;4974836;28;20027;-63
2023/04/04 07:27:23;;;;;;;3.75;1.70;;;;;;;16.87;56.94;99486.41;4975045;28;20059;-64
2023/04/04 07:29:48;;;;;;;4.22;2.00;;;;;;;16.88;56.81;99488.13;4975182;28;20023;-63
2023/04/04 07:32:14;;;;;;;4.50;1.90;;;;;;;16.89;56.62;99492.44;4975004;28;20500;-64
2023/04/04 07:34:39;;;;;;;6.35;1.90;;;;;;;16.90;56.71;99491.53;4974880;28;20400;-63
2023/04/04 07:37:04;;;;;;;7.07;2.00;;;;;;;16.87;56.83;99489.03;4973498;28;20121;-63
2023/04/04 07:39:30;;;;;;;4.25;1.60;;;;;;;16.89;56.99;99489.81;4987195;28;20046;-63
2023/04/04 07:41:56;;;;;;;3.95;1.95;;;;;;;16.91;56.61;99497.66;4994173;28;20022;-63
2023/04/04 07:44:21;;;;;;;6.63;2.33;;;;;;;16.92;56.76;99494.94;4975182;28;20038;-64
2023/04/04 07:46:47;;;;;;;3.35;1.40;;;;;;;16.93;56.62;99487.91;4974503;28;20027;-63
2023/04/04 07:49:12;;;;;;;4.88;1.70;;;;;;;16.94;56.40;99481.69;4974721;28;20023;-64
2023/04/04 07:51:38;;;;;;;4.95;2.00;;;;;;;16.94;56.63;99486.13;4974670;28;20030;-63
2023/04/04 07:54:04;;;;;;;4.68;2.10;;;;;;;16.95;56.25;99493.13;4974242;28;20098;-64
2023/04/04 07:56:29;;;;;;;3.25;1.80;;;;;;;16.96;56.25;99479.88;4974438;28;20098;-64
2023/04/04 07:58:55;;;;;;;5.25;2.33;;;;;;;17.00;56.30;99494.59;4974456;28;20450;-64
2023/04/04 08:01:20;;;;;;;4.97;1.85;;;;;;;16.99;56.27;99494.66;4988249;28;20022;-63
2023/04/04 08:03:46;;;;;;;5.93;1.88;;;;;;;17.03;56.13;99501.56;4993857;28;20026;-63
2023/04/04 08:06:12;;;;;;;3.22;1.60;;;;;;;17.00;56.44;99491.97;4993785;28;20574;-64
2023/04/04 08:08:37;;;;;;;4.30;1.80;;;;;;;17.01;56.45;99503.38;4993505;28;20038;-63
2023/04/04 08:11:03;;;;;;;4.97;1.90;;;;;;;17.07;55.95;99492.59;4993485;28;20025;-63
2023/04/04 08:13:28;;;;;;;5.47;1.92;;;;;;;17.06;56.14;99496.16;4992795;28;20100;-63
2023/04/04 08:15:53;;;;;;;3.60;1.75;;;;;;;17.07;55.98;99500.50;4993668;28;20444;-62
2023/04/04 08:18:19;;;;;;;3.17;1.58;;;;;;;17.11;56.05;99491.56;4993519;28;20496;-63
2023/04/04 08:20:45;;;;;;;4.72;2.10;;;;;;;17.11;55.92;99498.59;4976269;28;20014;-63
2023/04/04 08:23:11;;;;;;;4.15;2.45;;;;;;;17.12;55.84;99490.63;4980557;28;20031;-63
2023/04/04 08:25:38;;;;;;;3.38;1.85;;;;;;;17.17;55.85;99500.97;4973541;28;20022;-63
2023/04/04 08:28:04;;;;;;;4.07;1.92;;;;;;;17.17;55.66;99491.28;4973978;28;20485;-63
2023/04/04 08:30:30;;;;;;;4.65;1.90;;;;;;;17.20;55.53;99497.34;4973925;28;20107;-63
2023/04/04 08:32:56;;;;;;;4.10;1.92;;;;;;;17.20;55.43;99497.34;4979303;28;20031;-64
2023/04/04 08:35:21;;;;;;;3.63;2.35;;;;;;;17.22;55.52;99492.84;4993135;28;20033;-63
2023/04/04 08:37:47;;;;;;;3.58;1.58;;;;;;;17.21;55.46;99488.50;4992941;28;20037;-63
2023/04/04 08:40:13;;;;;;;4.15;1.85;;;;;;;17.22;55.52;99484.94;4992863;28;20038;-63
2023/04/04 08:42:42;;;;;;;3.30;1.77;;;;;;;17.21;55.15;99488.50;4987930;28;20523;-63
2023/04/04 08:45:08;;;;;;;4.53;1.92;;;;;;;17.21;55.63;99488.50;4973636;28;20110;-63
2023/04/04 08:47:36;;;;;;;3.70;1.73;;;;;;;17.23;55.18;99487.50;4973486;28;20027;-64
2023/04/04 08:50:06;;;;;;;2.92;1.48;;;;;;;17.21;55.43;99489.38;4973671;28;20027;-64
2023/04/04 08:52:35;;;;;;;4.13;1.88;;;;;;;17.23;55.36;99492.78;4973395;28;20031;-62
2023/04/04 08:55:04;;;;;;;3.55;1.98;;;;;;;17.25;55.38;99490.06;4989087;28;20384;-64
2023/04/04 08:57:30;;;;;;;3.85;1.83;;;;;;;17.21;55.49;99483.22;4975474;28;20113;-63
2023/04/04 08:59:56;;;;;;;3.42;1.52;;;;;;;17.22;55.27;99490.19;4992539;28;20026;-63
2023/04/04 09:03:00;;;;;;;4.15;1.77;;;;;;;17.24;55.18;99489.22;4992651;28;20034;-64
2023/04/04 09:05:27;;;;;;;3.63;1.55;;;;;;;17.24;55.07;99483.94;4975341;28;20053;-63
2023/04/04 09:07:52;;;;;;;3.88;1.83;;;;;;;17.27;55.12;99488.22;4993456;28;20030;-64
2023/04/04 09:10:18;;;;;;;3.92;1.65;;;;;;;17.29;55.13;99504.84;4993448;28;20041;-63
2023/04/04 09:12:46;;;;;;;3.10;1.52;;;;;;;17.29;55.07;99504.84;4975878;28;20027;-63
2023/04/04 09:15:12;;;;;;;3.97;2.17;;;;;;;17.29;55.17;99507.47;4993252;28;20054;-64
2023/04/04 09:17:38;;;;;;;4.80;1.77;;;;;;;17.31;54.98;99505.63;4993285;28;20022;-63
2023/04/04 09:20:33;;;;;;;3.90;1.73;;;;;;;17.30;55.39;99515.31;4992719;28;20045;-63
2023/04/04 09:22:59;;;;;;;3.63;1.90;;;;;;;17.31;55.13;99505.63;4981871;28;20034;-63
2023/04/04 09:25:25;;;;;;;3.22;1.67;;;;;;;17.33;54.85;99511.69;4975451;28;20031;-62
2023/04/04 09:27:54;;;;;;;3.28;1.65;;;;;;;17.34;54.96;99508.09;4977415;28;20098;-63
2023/04/04 09:30:20;;;;;;;3.70;1.75;;;;;;;17.33;55.22;99511.69;4977347;28;20666;-63
2023/04/04 09:32:46;;;;;;;2.80;1.55;;;;;;;17.35;55.01;99523.03;4976968;28;20042;-63
2023/04/04 09:35:14;;;;;;;3.78;1.60;;;;;;;17.35;55.17;99517.75;4976651;28;20019;-63
2023/04/04 09:37:40;;;;;;;3.95;1.88;;;;;;;17.37;55.04;99518.53;4977008;28;20047;-64
2023/04/04 09:40:09;;;;;;;3.17;1.60;;;;;;;17.37;54.76;99521.16;4976941;28;20093;-64
2023/04/04 09:42:34;;;;;;;3.53;1.75;;;;;;;17.38;55.08;99530.78;4976842;28;20764;-63
2023/04/04 09:45:01;;;;;;;3.25;1.50;;;;;;;17.38;54.95;99516.75;4976898;28;20118;-62
2023/04/04 09:47:29;;;;;;;3.13;1.63;;;;;;;17.39;54.80;99524.59;4976754;28;20023;-63
2023/04/04 09:50:03;;;;;;;2.53;1.48;;;;;;;17.39;55.06;99524.59;4976573;28;20392;-63
2023/04/04 09:52:37;;;;;;;4.05;1.80;;;;;;;17.42;54.79;99529.75;4976665;28;20023;-63
2023/04/04 09:55:05;;;;;;;3.70;1.60;;;;;;;17.43;54.67;99538.50;4976693;28;20436;-64
2023/04/04 09:57:33;;;;;;;4.30;1.67;;;;;;;17.44;54.68;99538.44;4976640;28;20565;-63
2023/04/04 10:00:07;;;;;;;4.13;1.48;;;;;;;17.43;54.98;99536.72;4976653;28;20029;-63
2023/04/04 10:02:34;;;;;;;2.45;1.17;;;;;;;17.43;54.67;99541.13;4976285;28;20639;-64
2023/04/04 10:05:00;;;;;;;2.63;1.63;;;;;;;17.44;54.97;99550.78;4976522;28;20062;-63
2023/04/04 10:07:27;;;;;;;4.05;1.63;;;;;;;17.45;54.96;99534.88;4976483;28;20051;-63
2023/04/04 10:09:53;;;;;;;3.42;1.67;;;;;;;17.46;54.88;99551.56;4976474;28;20031;-63
2023/04/04 10:12:23;;;;;;;2.97;1.70;;;;;;;17.47;54.81;99547.16;4976472;28;20031;-63
2023/04/04 10:14:58;;;;;;;3.00;1.38;;;;;;;17.47;54.81;99557.72;4976371;28;20038;-63
2023/04/04 10:17:30;;;;;;;2.65;1.52;;;;;;;17.48;54.87;99549.69;4976067;28;20038;-63
2023/04/04 10:20:00;;;;;;;3.22;1.70;;;;;;;17.50;54.84;99547.00;4970240;28;20039;-63
2023/04/04 10:22:25;;;;;;;3.35;1.70;;;;;;;17.49;54.80;99545.28;4976294;28;20460;-63
2023/04/04 10:24:52;;;;;;;3.03;1.63;;;;;;;17.50;54.69;99549.63;4976392;28;20030;-63
2023/04/04 10:27:19;;;;;;;2.38;1.60;;;;;;;17.50;54.85;99552.28;4975850;28;20026;-63
2023/04/04 10:29:47;;;;;;;3.90;1.50;;;;;;;17.52;54.62;99560.97;4976094;28;20034;-63
2023/04/04 10:32:21;;;;;;;3.00;1.45;;;;;;;17.53;54.92;99567.97;4975489;28;20058;-63
2023/04/04 10:34:55;;;;;;;3.30;1.75;;;;;;;17.52;54.65;99567.09;4975953;28;20029;-63
2023/04/04 10:37:28;;;;;;;2.63;1.33;;;;;;;17.53;54.60;99562.69;4975448;28;20027;-63
2023/04/04 10:40:14;;;;;;;2.80;1.63;;;;;;;17.54;54.57;99570.53;4975603;28;20689;-64
2023/04/04 10:42:43;;;;;;;2.67;1.50;;;;;;;17.56;54.53;99565.19;4975828;28;20038;-63
2023/04/04 10:45:09;;;;;;;2.67;1.40;;;;;;;17.56;54.49;99567.81;4975887;28;20377;-63
2023/04/04 10:47:36;;;;;;;2.42;1.27;;;;;;;17.57;54.80;99566.91;4975390;28;20023;-63
2023/04/04 10:50:06;;;;;;;2.47;1.60;;;;;;;17.60;54.54;99568.53;4975333;28;20030;-62
2023/04/04 10:52:33;;;;;;;3.20;1.48;;;;;;;17.61;54.68;99567.59;4975680;28;20026;-63
2023/04/04 10:55:03;;;;;;;3.17;1.67;;;;;;;17.60;54.74;99564.13;4975461;28;20030;-63
2023/04/04 10:57:29;;;;;;;2.58;1.50;;;;;;;17.61;54.70;99571.13;4975804;28;20102;-63
2023/04/04 11:00:04;;;;;;;2.45;1.27;;;;;;;17.63;54.45;99566.63;4975196;28;20029;-63
2023/04/04 11:02:51;;;;;;;2.88;1.67;;;;;;;17.65;54.58;99572.69;4975007;28;20050;-63
2023/04/04 11:05:48;;;;;;;2.78;1.48;;;;;;;17.66;54.69;99573.53;4975250;28;20047;-63
2023/04/04 11:08:21;;;;;;;2.28;1.55;;;;;;;17.67;54.59;99570.84;4975000;28;20038;-63
2023/04/04 11:10:48;;;;;;;3.60;1.38;;;;;;;17.68;54.75;99577.00;4974982;28;20080;-63
2023/04/04 11:13:21;;;;;;;2.72;1.42;;;;;;;17.69;54.61;99574.25;4975326;28;20404;-64
2023/04/04 11:16:06;;;;;;;3.53;1.60;;;;;;;17.70;54.49;99578.63;4974707;28;20114;-64
2023/04/04 11:18:39;;;;;;;4.22;1.58;;;;;;;17.71;54.41;99577.69;4966801;28;20071;-63
2023/04/04 11:21:23;;;;;;;3.35;1.65;;;;;;;17.73;54.36;99568.84;4965956;28;20027;-64
2023/04/04 11:23:48;;;;;;;2.83;1.40;;;;;;;17.74;54.43;99574.06;4958108;28;20027;-63
2023/04/04 11:26:26;;;;;;;2.72;1.40;;;;;;;17.76;54.45;99579.25;4962249;28;20121;-64
2023/04/04 11:28:55;;;;;;;2.95;1.60;;;;;;;17.76;54.29;99580.13;4957045;28;21005;-63
2023/04/04 11:31:23;;;;;;;2.58;1.50;;;;;;;17.78;54.35;99587.97;4966057;28;20110;-64
2023/04/04 11:34:12;;;;;;;2.90;1.45;;;;;;;17.79;54.47;99579.13;4958905;28;20030;-64
2023/04/04 11:36:39;;;;;;;2.22;1.38;;;;;;;17.80;54.25;99570.28;4938981;28;20481;-64